Terminal Aerodrome Forecast
Issued by NWS Twin Cities, MN

Home | Current Version | Previous Version | Text Only | Print | Product List | Glossary Off
Versions: 1 2 3 4 5 6 7 8 9 10 11 12 13 14 15 16 17 18 19 20 21 22 23 24 25 26

000
FTUS43 KMPX 230900 AAA
TAFMSP
TAF AMD
KMSP 230900Z 2309/2412 VRB04KT P6SM FEW250
     FM231700 08006KT P6SM FEW250
     FM232000 12006KT P6SM FEW250
     FM240600 13006KT P6SM SCT250
     FM240900 17007KT P6SM BKN200 WS020/21040KT=

USA.gov is the U.S. government's official web portal to all federal, state and local government web resources and services.